sensor_id;sensor_type;location;lat;lon;timestamp;P1;durP1;ratioP1;P2;durP2;ratioP2
27839;SDS011;15207;42.182;24.308;2022-08-02T00:00:09;4.85;;;2.95;;
27839;SDS011;15207;42.182;24.308;2022-08-02T00:05:04;3.90;;;2.40;;
27839;SDS011;15207;42.182;24.308;2022-08-02T00:07:30;6.75;;;3.15;;
27839;SDS011;15207;42.182;24.308;2022-08-02T00:09:56;7.80;;;2.90;;
27839;SDS011;15207;42.182;24.308;2022-08-02T00:12:22;3.33;;;2.70;;
27839;SDS011;15207;42.182;24.308;2022-08-02T00:14:48;7.13;;;2.95;;
27839;SDS011;15207;42.182;24.308;2022-08-02T00:17:14;5.30;;;2.90;;
27839;SDS011;15207;42.182;24.308;2022-08-02T00:22:04;4.90;;;2.83;;
27839;SDS011;15207;42.182;24.308;2022-08-02T00:24:30;4.60;;;2.70;;
27839;SDS011;15207;42.182;24.308;2022-08-02T00:26:56;4.35;;;2.70;;
27839;SDS011;15207;42.182;24.308;2022-08-02T00:29:21;3.03;;;2.67;;
27839;SDS011;15207;42.182;24.308;2022-08-02T00:31:47;4.70;;;2.40;;
27839;SDS011;15207;42.182;24.308;2022-08-02T00:34:13;7.05;;;3.00;;
27839;SDS011;15207;42.182;24.308;2022-08-02T00:36:38;5.63;;;2.60;;
27839;SDS011;15207;42.182;24.308;2022-08-02T00:39:04;3.20;;;2.00;;
27839;SDS011;15207;42.182;24.308;2022-08-02T00:41:29;6.28;;;2.50;;
27839;SDS011;15207;42.182;24.308;2022-08-02T00:46:21;3.10;;;2.20;;
27839;SDS011;15207;42.182;24.308;2022-08-02T00:48:46;4.80;;;2.50;;
27839;SDS011;15207;42.182;24.308;2022-08-02T00:51:12;3.38;;;2.08;;
27839;SDS011;15207;42.182;24.308;2022-08-02T00:53:38;5.40;;;2.50;;
27839;SDS011;15207;42.182;24.308;2022-08-02T00:56:04;5.80;;;2.50;;
27839;SDS011;15207;42.182;24.308;2022-08-02T00:58:30;3.90;;;2.50;;
27839;SDS011;15207;42.182;24.308;2022-08-02T01:00:55;2.90;;;2.60;;
27839;SDS011;15207;42.182;24.308;2022-08-02T01:03:22;4.97;;;2.40;;
27839;SDS011;15207;42.182;24.308;2022-08-02T01:05:48;5.85;;;2.80;;
27839;SDS011;15207;42.182;24.308;2022-08-02T01:08:14;5.20;;;2.13;;
27839;SDS011;15207;42.182;24.308;2022-08-02T01:13:05;4.50;;;2.30;;
27839;SDS011;15207;42.182;24.308;2022-08-02T01:15:32;4.53;;;2.38;;
27839;SDS011;15207;42.182;24.308;2022-08-02T01:18:04;3.97;;;2.53;;
27839;SDS011;15207;42.182;24.308;2022-08-02T01:29:09;4.95;;;2.60;;
27839;SDS011;15207;42.182;24.308;2022-08-02T01:36:55;3.10;;;2.77;;
27839;SDS011;15207;42.182;24.308;2022-08-02T01:39:25;5.17;;;2.87;;
27839;SDS011;15207;42.182;24.308;2022-08-02T01:44:20;3.35;;;2.58;;
27839;SDS011;15207;42.182;24.308;2022-08-02T01:46:48;5.55;;;2.90;;
27839;SDS011;15207;42.182;24.308;2022-08-02T01:49:17;3.92;;;2.80;;
27839;SDS011;15207;42.182;24.308;2022-08-02T01:51:47;6.00;;;2.60;;
27839;SDS011;15207;42.182;24.308;2022-08-02T01:57:01;4.67;;;2.90;;
27839;SDS011;15207;42.182;24.308;2022-08-02T02:01:56;5.97;;;2.78;;
27839;SDS011;15207;42.182;24.308;2022-08-02T02:04:23;4.65;;;2.55;;
27839;SDS011;15207;42.182;24.308;2022-08-02T02:06:52;2.65;;;2.45;;
27839;SDS011;15207;42.182;24.308;2022-08-02T02:09:19;4.30;;;2.88;;
27839;SDS011;15207;42.182;24.308;2022-08-02T02:11:46;7.00;;;2.90;;
27839;SDS011;15207;42.182;24.308;2022-08-02T02:14:13;3.03;;;2.55;;
27839;SDS011;15207;42.182;24.308;2022-08-02T02:16:41;6.20;;;2.70;;
27839;SDS011;15207;42.182;24.308;2022-08-02T02:21:36;6.70;;;2.70;;
27839;SDS011;15207;42.182;24.308;2022-08-02T02:24:02;5.10;;;2.50;;
27839;SDS011;15207;42.182;24.308;2022-08-02T02:26:28;3.15;;;2.20;;
27839;SDS011;15207;42.182;24.308;2022-08-02T02:28:56;6.53;;;2.77;;
27839;SDS011;15207;42.182;24.308;2022-08-02T02:31:25;4.80;;;2.30;;
27839;SDS011;15207;42.182;24.308;2022-08-02T02:34:15;2.65;;;2.40;;
27839;SDS011;15207;42.182;24.308;2022-08-02T02:36:43;5.15;;;2.10;;
27839;SDS011;15207;42.182;24.308;2022-08-02T02:39:12;5.20;;;2.40;;
27839;SDS011;15207;42.182;24.308;2022-08-02T02:41:40;5.80;;;2.70;;
27839;SDS011;15207;42.182;24.308;2022-08-02T02:49:00;5.20;;;2.40;;
27839;SDS011;15207;42.182;24.308;2022-08-02T02:51:27;4.80;;;2.70;;
27839;SDS011;15207;42.182;24.308;2022-08-02T02:53:54;6.17;;;2.37;;
27839;SDS011;15207;42.182;24.308;2022-08-02T02:56:22;3.20;;;2.40;;
27839;SDS011;15207;42.182;24.308;2022-08-02T02:58:48;8.13;;;2.75;;
27839;SDS011;15207;42.182;24.308;2022-08-02T03:08:43;6.10;;;2.40;;
27839;SDS011;15207;42.182;24.308;2022-08-02T03:11:09;4.45;;;2.50;;
27839;SDS011;15207;42.182;24.308;2022-08-02T03:23:23;5.45;;;2.63;;
27839;SDS011;15207;42.182;24.308;2022-08-02T03:25:48;5.78;;;2.80;;
27839;SDS011;15207;42.182;24.308;2022-08-02T03:28:14;3.00;;;2.35;;
27839;SDS011;15207;42.182;24.308;2022-08-02T03:30:39;7.70;;;3.20;;
27839;SDS011;15207;42.182;24.308;2022-08-02T03:33:06;7.85;;;3.30;;
27839;SDS011;15207;42.182;24.308;2022-08-02T03:37:57;6.65;;;3.08;;
27839;SDS011;15207;42.182;24.308;2022-08-02T03:40:24;6.75;;;2.90;;
27839;SDS011;15207;42.182;24.308;2022-08-02T03:42:52;9.45;;;2.70;;
27839;SDS011;15207;42.182;24.308;2022-08-02T03:45:18;4.45;;;2.65;;
27839;SDS011;15207;42.182;24.308;2022-08-02T03:47:45;4.50;;;2.60;;
27839;SDS011;15207;42.182;24.308;2022-08-02T03:52:40;7.53;;;2.43;;
27839;SDS011;15207;42.182;24.308;2022-08-02T03:55:07;5.32;;;2.45;;
27839;SDS011;15207;42.182;24.308;2022-08-02T03:57:35;7.03;;;2.80;;
27839;SDS011;15207;42.182;24.308;2022-08-02T04:00:04;6.40;;;2.75;;
27839;SDS011;15207;42.182;24.308;2022-08-02T04:02:31;10.18;;;2.90;;
27839;SDS011;15207;42.182;24.308;2022-08-02T04:04:56;11.00;;;3.05;;
27839;SDS011;15207;42.182;24.308;2022-08-02T04:07:22;18.08;;;3.53;;
27839;SDS011;15207;42.182;24.308;2022-08-02T04:09:48;6.20;;;2.60;;
27839;SDS011;15207;42.182;24.308;2022-08-02T04:14:38;6.90;;;2.00;;
27839;SDS011;15207;42.182;24.308;2022-08-02T04:17:06;5.00;;;2.00;;
27839;SDS011;15207;42.182;24.308;2022-08-02T04:19:37;8.15;;;2.05;;
27839;SDS011;15207;42.182;24.308;2022-08-02T04:22:18;5.40;;;2.60;;
27839;SDS011;15207;42.182;24.308;2022-08-02T04:24:51;3.70;;;2.40;;
27839;SDS011;15207;42.182;24.308;2022-08-02T04:27:21;3.80;;;2.70;;
27839;SDS011;15207;42.182;24.308;2022-08-02T04:29:47;3.60;;;2.10;;
27839;SDS011;15207;42.182;24.308;2022-08-02T04:32:14;3.15;;;2.13;;
27839;SDS011;15207;42.182;24.308;2022-08-02T04:34:41;4.37;;;2.20;;
27839;SDS011;15207;42.182;24.308;2022-08-02T04:37:07;3.45;;;2.35;;
27839;SDS011;15207;42.182;24.308;2022-08-02T04:39:35;3.73;;;2.23;;
27839;SDS011;15207;42.182;24.308;2022-08-02T04:44:26;5.55;;;2.75;;
27839;SDS011;15207;42.182;24.308;2022-08-02T04:46:52;36.95;;;3.70;;
27839;SDS011;15207;42.182;24.308;2022-08-02T04:51:44;4.17;;;2.20;;
27839;SDS011;15207;42.182;24.308;2022-08-02T04:54:10;3.00;;;2.10;;
27839;SDS011;15207;42.182;24.308;2022-08-02T04:56:36;3.88;;;1.90;;
27839;SDS011;15207;42.182;24.308;2022-08-02T04:59:03;3.75;;;1.85;;
27839;SDS011;15207;42.182;24.308;2022-08-02T05:01:29;7.93;;;2.00;;
27839;SDS011;15207;42.182;24.308;2022-08-02T05:03:54;4.27;;;2.13;;
27839;SDS011;15207;42.182;24.308;2022-08-02T05:06:20;5.37;;;2.10;;
27839;SDS011;15207;42.182;24.308;2022-08-02T05:08:46;3.00;;;1.87;;
27839;SDS011;15207;42.182;24.308;2022-08-02T05:11:12;5.00;;;2.20;;
27839;SDS011;15207;42.182;24.308;2022-08-02T05:13:39;5.50;;;1.80;;
27839;SDS011;15207;42.182;24.308;2022-08-02T05:16:08;3.20;;;2.20;;
27839;SDS011;15207;42.182;24.308;2022-08-02T05:18:34;10.32;;;2.03;;
27839;SDS011;15207;42.182;24.308;2022-08-02T05:21:00;3.60;;;2.10;;
27839;SDS011;15207;42.182;24.308;2022-08-02T05:23:25;3.50;;;2.20;;
27839;SDS011;15207;42.182;24.308;2022-08-02T05:25:51;25.27;;;2.80;;
27839;SDS011;15207;42.182;24.308;2022-08-02T05:28:17;26.10;;;3.30;;
27839;SDS011;15207;42.182;24.308;2022-08-02T05:30:42;3.60;;;2.40;;
27839;SDS011;15207;42.182;24.308;2022-08-02T05:33:08;8.63;;;2.60;;
27839;SDS011;15207;42.182;24.308;2022-08-02T05:35:33;8.40;;;2.70;;
27839;SDS011;15207;42.182;24.308;2022-08-02T05:37:59;4.93;;;2.10;;
27839;SDS011;15207;42.182;24.308;2022-08-02T05:42:50;2.80;;;2.35;;
27839;SDS011;15207;42.182;24.308;2022-08-02T05:45:16;3.25;;;2.15;;
27839;SDS011;15207;42.182;24.308;2022-08-02T05:47:42;3.70;;;2.20;;
27839;SDS011;15207;42.182;24.308;2022-08-02T05:50:08;3.10;;;1.67;;
27839;SDS011;15207;42.182;24.308;2022-08-02T05:55:17;3.88;;;1.95;;
27839;SDS011;15207;42.182;24.308;2022-08-02T05:58:12;5.00;;;2.10;;
27839;SDS011;15207;42.182;24.308;2022-08-02T06:00:44;6.50;;;2.40;;
27839;SDS011;15207;42.182;24.308;2022-08-02T06:03:14;4.50;;;2.10;;
27839;SDS011;15207;42.182;24.308;2022-08-02T06:05:47;3.50;;;1.80;;
27839;SDS011;15207;42.182;24.308;2022-08-02T06:08:36;5.07;;;2.00;;
27839;SDS011;15207;42.182;24.308;2022-08-02T06:11:06;2.30;;;1.90;;
27839;SDS011;15207;42.182;24.308;2022-08-02T06:13:36;5.05;;;1.73;;
27839;SDS011;15207;42.182;24.308;2022-08-02T06:18:29;4.00;;;1.60;;
27839;SDS011;15207;42.182;24.308;2022-08-02T06:20:57;3.60;;;1.90;;
27839;SDS011;15207;42.182;24.308;2022-08-02T06:25:53;13.67;;;1.77;;
27839;SDS011;15207;42.182;24.308;2022-08-02T06:28:23;1.55;;;1.45;;
27839;SDS011;15207;42.182;24.308;2022-08-02T06:30:50;8.60;;;1.60;;
27839;SDS011;15207;42.182;24.308;2022-08-02T06:33:17;6.43;;;2.33;;
27839;SDS011;15207;42.182;24.308;2022-08-02T06:39:03;4.40;;;1.57;;
27839;SDS011;15207;42.182;24.308;2022-08-02T06:41:37;3.63;;;1.67;;
27839;SDS011;15207;42.182;24.308;2022-08-02T06:44:07;4.50;;;1.60;;
27839;SDS011;15207;42.182;24.308;2022-08-02T06:46:33;3.00;;;1.60;;
27839;SDS011;15207;42.182;24.308;2022-08-02T06:48:59;3.60;;;1.60;;
27839;SDS011;15207;42.182;24.308;2022-08-02T06:51:26;2.28;;;1.40;;
27839;SDS011;15207;42.182;24.308;2022-08-02T06:53:52;3.05;;;1.60;;
27839;SDS011;15207;42.182;24.308;2022-08-02T06:56:17;3.90;;;1.70;;
27839;SDS011;15207;42.182;24.308;2022-08-02T06:58:44;1.60;;;1.50;;
27839;SDS011;15207;42.182;24.308;2022-08-02T07:01:09;2.78;;;1.80;;
27839;SDS011;15207;42.182;24.308;2022-08-02T07:03:37;5.00;;;1.40;;
27839;SDS011;15207;42.182;24.308;2022-08-02T07:06:05;9.60;;;2.05;;
27839;SDS011;15207;42.182;24.308;2022-08-02T07:08:33;4.50;;;1.40;;
27839;SDS011;15207;42.182;24.308;2022-08-02T07:11:02;10.60;;;1.50;;
27839;SDS011;15207;42.182;24.308;2022-08-02T07:13:32;5.50;;;1.85;;
27839;SDS011;15207;42.182;24.308;2022-08-02T07:15:57;4.05;;;1.90;;
27839;SDS011;15207;42.182;24.308;2022-08-02T07:18:23;3.20;;;1.73;;
27839;SDS011;15207;42.182;24.308;2022-08-02T07:20:49;1.83;;;1.70;;
27839;SDS011;15207;42.182;24.308;2022-08-02T07:23:16;3.20;;;1.20;;
27839;SDS011;15207;42.182;24.308;2022-08-02T07:25:41;7.20;;;2.40;;
27839;SDS011;15207;42.182;24.308;2022-08-02T07:28:09;4.85;;;1.85;;
27839;SDS011;15207;42.182;24.308;2022-08-02T07:30:35;5.10;;;1.80;;
27839;SDS011;15207;42.182;24.308;2022-08-02T07:33:00;2.08;;;1.30;;
27839;SDS011;15207;42.182;24.308;2022-08-02T07:35:27;3.00;;;1.30;;
27839;SDS011;15207;42.182;24.308;2022-08-02T07:37:53;1.00;;;0.90;;
27839;SDS011;15207;42.182;24.308;2022-08-02T07:40:19;2.05;;;0.70;;
27839;SDS011;15207;42.182;24.308;2022-08-02T07:42:45;2.25;;;1.10;;
27839;SDS011;15207;42.182;24.308;2022-08-02T07:45:12;2.50;;;0.90;;
27839;SDS011;15207;42.182;24.308;2022-08-02T07:47:38;1.57;;;1.07;;
27839;SDS011;15207;42.182;24.308;2022-08-02T07:50:05;3.77;;;1.00;;
27839;SDS011;15207;42.182;24.308;2022-08-02T07:52:32;8.40;;;1.10;;
27839;SDS011;15207;42.182;24.308;2022-08-02T07:54:58;2.05;;;1.00;;
27839;SDS011;15207;42.182;24.308;2022-08-02T07:57:25;2.17;;;1.00;;
27839;SDS011;15207;42.182;24.308;2022-08-02T07:59:51;2.10;;;1.20;;
27839;SDS011;15207;42.182;24.308;2022-08-02T08:02:16;6.03;;;1.17;;
27839;SDS011;15207;42.182;24.308;2022-08-02T08:07:08;1.70;;;0.60;;
27839;SDS011;15207;42.182;24.308;2022-08-02T08:09:36;1.85;;;0.90;;
27839;SDS011;15207;42.182;24.308;2022-08-02T08:12:08;1.30;;;0.70;;
27839;SDS011;15207;42.182;24.308;2022-08-02T08:14:36;31.90;;;1.90;;
27839;SDS011;15207;42.182;24.308;2022-08-02T08:17:02;1.73;;;1.00;;
27839;SDS011;15207;42.182;24.308;2022-08-02T08:19:29;9.70;;;1.80;;
27839;SDS011;15207;42.182;24.308;2022-08-02T08:21:54;3.90;;;1.20;;
27839;SDS011;15207;42.182;24.308;2022-08-02T08:24:20;1.50;;;1.00;;
27839;SDS011;15207;42.182;24.308;2022-08-02T08:26:45;1.60;;;0.70;;
27839;SDS011;15207;42.182;24.308;2022-08-02T08:29:11;1.20;;;0.70;;
27839;SDS011;15207;42.182;24.308;2022-08-02T08:31:36;3.80;;;1.00;;
27839;SDS011;15207;42.182;24.308;2022-08-02T08:34:02;1.70;;;0.90;;
27839;SDS011;15207;42.182;24.308;2022-08-02T08:36:28;1.60;;;0.70;;
27839;SDS011;15207;42.182;24.308;2022-08-02T08:38:54;15.70;;;1.85;;
27839;SDS011;15207;42.182;24.308;2022-08-02T08:41:20;1.40;;;0.90;;
27839;SDS011;15207;42.182;24.308;2022-08-02T08:43:46;3.35;;;1.30;;
27839;SDS011;15207;42.182;24.308;2022-08-02T08:46:33;1.00;;;0.80;;
27839;SDS011;15207;42.182;24.308;2022-08-02T08:49:08;1.60;;;0.88;;
27839;SDS011;15207;42.182;24.308;2022-08-02T08:51:41;1.60;;;0.70;;
27839;SDS011;15207;42.182;24.308;2022-08-02T08:54:09;1.70;;;0.60;;
27839;SDS011;15207;42.182;24.308;2022-08-02T08:56:39;1.35;;;0.60;;
27839;SDS011;15207;42.182;24.308;2022-08-02T08:59:07;0.75;;;0.50;;
27839;SDS011;15207;42.182;24.308;2022-08-02T09:03:59;0.70;;;0.60;;
27839;SDS011;15207;42.182;24.308;2022-08-02T09:06:24;0.70;;;0.70;;
27839;SDS011;15207;42.182;24.308;2022-08-02T09:08:50;1.80;;;0.70;;
27839;SDS011;15207;42.182;24.308;2022-08-02T09:11:17;1.33;;;0.60;;
27839;SDS011;15207;42.182;24.308;2022-08-02T09:13:48;0.60;;;0.60;;
27839;SDS011;15207;42.182;24.308;2022-08-02T09:18:50;0.60;;;0.50;;
27839;SDS011;15207;42.182;24.308;2022-08-02T09:21:16;2.60;;;1.00;;
27839;SDS011;15207;42.182;24.308;2022-08-02T09:23:45;1.00;;;0.70;;
27839;SDS011;15207;42.182;24.308;2022-08-02T09:26:13;2.60;;;0.80;;
27839;SDS011;15207;42.182;24.308;2022-08-02T09:28:40;1.83;;;0.80;;
27839;SDS011;15207;42.182;24.308;2022-08-02T09:31:08;1.85;;;0.70;;
27839;SDS011;15207;42.182;24.308;2022-08-02T09:33:35;1.30;;;0.50;;
27839;SDS011;15207;42.182;24.308;2022-08-02T09:36:03;3.40;;;0.70;;
27839;SDS011;15207;42.182;24.308;2022-08-02T09:40:57;2.30;;;0.70;;
27839;SDS011;15207;42.182;24.308;2022-08-02T09:46:12;3.60;;;0.75;;
27839;SDS011;15207;42.182;24.308;2022-08-02T09:48:52;1.75;;;0.60;;
27839;SDS011;15207;42.182;24.308;2022-08-02T09:53:45;5.53;;;0.87;;
27839;SDS011;15207;42.182;24.308;2022-08-02T09:56:12;1.45;;;1.15;;
27839;SDS011;15207;42.182;24.308;2022-08-02T09:58:37;2.55;;;0.60;;
27839;SDS011;15207;42.182;24.308;2022-08-02T10:01:03;1.15;;;0.70;;
27839;SDS011;15207;42.182;24.308;2022-08-02T10:03:30;1.00;;;0.77;;
27839;SDS011;15207;42.182;24.308;2022-08-02T10:05:55;1.05;;;0.70;;
27839;SDS011;15207;42.182;24.308;2022-08-02T10:08:25;1.10;;;0.60;;
27839;SDS011;15207;42.182;24.308;2022-08-02T10:13:31;5.50;;;0.80;;
27839;SDS011;15207;42.182;24.308;2022-08-02T10:15:58;1.20;;;0.60;;
27839;SDS011;15207;42.182;24.308;2022-08-02T10:18:26;1.60;;;0.90;;
27839;SDS011;15207;42.182;24.308;2022-08-02T10:20:53;0.70;;;0.60;;
27839;SDS011;15207;42.182;24.308;2022-08-02T10:23:20;2.00;;;0.80;;
27839;SDS011;15207;42.182;24.308;2022-08-02T10:25:49;12.30;;;1.55;;
27839;SDS011;15207;42.182;24.308;2022-08-02T10:28:16;3.60;;;0.90;;
27839;SDS011;15207;42.182;24.308;2022-08-02T10:30:44;1.50;;;0.70;;
27839;SDS011;15207;42.182;24.308;2022-08-02T10:33:12;1.50;;;0.60;;
27839;SDS011;15207;42.182;24.308;2022-08-02T10:35:42;2.20;;;0.90;;
27839;SDS011;15207;42.182;24.308;2022-08-02T10:38:09;3.10;;;0.95;;
27839;SDS011;15207;42.182;24.308;2022-08-02T10:40:43;1.90;;;0.80;;
27839;SDS011;15207;42.182;24.308;2022-08-02T10:49:03;1.65;;;0.80;;
27839;SDS011;15207;42.182;24.308;2022-08-02T10:54:23;3.50;;;0.90;;
27839;SDS011;15207;42.182;24.308;2022-08-02T10:56:51;1.50;;;0.80;;
27839;SDS011;15207;42.182;24.308;2022-08-02T10:59:35;4.43;;;0.83;;
27839;SDS011;15207;42.182;24.308;2022-08-02T11:02:02;0.70;;;0.50;;
27839;SDS011;15207;42.182;24.308;2022-08-02T11:07:19;5.10;;;0.70;;
27839;SDS011;15207;42.182;24.308;2022-08-02T11:09:55;5.00;;;0.75;;
27839;SDS011;15207;42.182;24.308;2022-08-02T11:12:23;1.80;;;0.60;;
27839;SDS011;15207;42.182;24.308;2022-08-02T11:17:25;3.70;;;0.90;;
27839;SDS011;15207;42.182;24.308;2022-08-02T11:22:38;2.70;;;0.90;;
27839;SDS011;15207;42.182;24.308;2022-08-02T11:30:20;2.50;;;0.60;;
27839;SDS011;15207;42.182;24.308;2022-08-02T11:32:46;1.20;;;0.70;;
27839;SDS011;15207;42.182;24.308;2022-08-02T11:35:13;3.27;;;0.60;;
27839;SDS011;15207;42.182;24.308;2022-08-02T11:37:43;1.37;;;0.73;;
27839;SDS011;15207;42.182;24.308;2022-08-02T11:40:10;4.37;;;1.00;;
27839;SDS011;15207;42.182;24.308;2022-08-02T11:42:38;7.30;;;1.00;;
27839;SDS011;15207;42.182;24.308;2022-08-02T11:45:09;0.40;;;0.40;;
27839;SDS011;15207;42.182;24.308;2022-08-02T11:47:45;1.30;;;0.80;;
27839;SDS011;15207;42.182;24.308;2022-08-02T11:50:12;0.90;;;0.70;;
27839;SDS011;15207;42.182;24.308;2022-08-02T11:52:38;0.90;;;0.60;;
27839;SDS011;15207;42.182;24.308;2022-08-02T11:55:07;2.05;;;0.65;;
27839;SDS011;15207;42.182;24.308;2022-08-02T11:57:34;0.60;;;0.50;;
27839;SDS011;15207;42.182;24.308;2022-08-02T12:00:00;5.15;;;0.95;;
27839;SDS011;15207;42.182;24.308;2022-08-02T12:02:27;1.10;;;0.70;;
27839;SDS011;15207;42.182;24.308;2022-08-02T12:04:55;1.00;;;0.60;;
27839;SDS011;15207;42.182;24.308;2022-08-02T12:07:32;1.95;;;0.90;;
27839;SDS011;15207;42.182;24.308;2022-08-02T12:09:59;3.30;;;0.90;;
27839;SDS011;15207;42.182;24.308;2022-08-02T12:12:32;0.80;;;0.60;;
27839;SDS011;15207;42.182;24.308;2022-08-02T12:14:58;3.70;;;0.60;;
27839;SDS011;15207;42.182;24.308;2022-08-02T12:17:23;1.65;;;0.80;;
27839;SDS011;15207;42.182;24.308;2022-08-02T12:20:11;1.15;;;0.65;;
27839;SDS011;15207;42.182;24.308;2022-08-02T12:22:37;1.65;;;0.60;;
27839;SDS011;15207;42.182;24.308;2022-08-02T12:25:16;2.90;;;0.60;;
27839;SDS011;15207;42.182;24.308;2022-08-02T12:27:46;4.20;;;0.70;;
27839;SDS011;15207;42.182;24.308;2022-08-02T12:30:15;0.70;;;0.60;;
27839;SDS011;15207;42.182;24.308;2022-08-02T12:32:42;1.40;;;0.70;;
27839;SDS011;15207;42.182;24.308;2022-08-02T12:35:11;3.30;;;0.70;;
27839;SDS011;15207;42.182;24.308;2022-08-02T12:37:43;5.65;;;0.90;;
27839;SDS011;15207;42.182;24.308;2022-08-02T12:40:24;0.90;;;0.70;;
27839;SDS011;15207;42.182;24.308;2022-08-02T12:42:54;2.60;;;0.70;;
27839;SDS011;15207;42.182;24.308;2022-08-02T12:45:22;1.47;;;0.83;;
27839;SDS011;15207;42.182;24.308;2022-08-02T12:47:51;1.75;;;0.75;;
27839;SDS011;15207;42.182;24.308;2022-08-02T12:50:19;3.00;;;0.90;;
27839;SDS011;15207;42.182;24.308;2022-08-02T12:53:08;1.25;;;0.60;;
27839;SDS011;15207;42.182;24.308;2022-08-02T12:55:36;1.65;;;0.65;;
27839;SDS011;15207;42.182;24.308;2022-08-02T12:58:12;3.90;;;0.80;;
27839;SDS011;15207;42.182;24.308;2022-08-02T13:00:37;0.80;;;0.60;;
27839;SDS011;15207;42.182;24.308;2022-08-02T13:03:04;1.30;;;0.70;;
27839;SDS011;15207;42.182;24.308;2022-08-02T13:05:31;2.10;;;0.77;;
27839;SDS011;15207;42.182;24.308;2022-08-02T13:07:59;0.87;;;0.63;;
27839;SDS011;15207;42.182;24.308;2022-08-02T13:10:26;2.20;;;0.80;;
27839;SDS011;15207;42.182;24.308;2022-08-02T13:12:52;0.60;;;0.60;;
27839;SDS011;15207;42.182;24.308;2022-08-02T13:15:19;0.60;;;0.60;;
27839;SDS011;15207;42.182;24.308;2022-08-02T13:17:45;1.30;;;0.75;;
27839;SDS011;15207;42.182;24.308;2022-08-02T13:20:11;5.35;;;0.70;;
27839;SDS011;15207;42.182;24.308;2022-08-02T13:22:41;2.60;;;0.90;;
27839;SDS011;15207;42.182;24.308;2022-08-02T13:25:07;3.70;;;0.70;;
27839;SDS011;15207;42.182;24.308;2022-08-02T13:27:33;0.60;;;0.60;;
27839;SDS011;15207;42.182;24.308;2022-08-02T13:30:00;2.90;;;0.50;;
27839;SDS011;15207;42.182;24.308;2022-08-02T13:32:26;2.20;;;0.95;;
27839;SDS011;15207;42.182;24.308;2022-08-02T13:34:53;2.50;;;0.80;;
27839;SDS011;15207;42.182;24.308;2022-08-02T13:37:19;1.35;;;0.60;;
27839;SDS011;15207;42.182;24.308;2022-08-02T13:39:46;0.80;;;0.70;;
27839;SDS011;15207;42.182;24.308;2022-08-02T13:42:12;0.90;;;0.90;;
27839;SDS011;15207;42.182;24.308;2022-08-02T13:44:38;3.60;;;0.93;;
27839;SDS011;15207;42.182;24.308;2022-08-02T13:47:04;1.05;;;0.70;;
27839;SDS011;15207;42.182;24.308;2022-08-02T13:49:30;3.03;;;0.80;;
27839;SDS011;15207;42.182;24.308;2022-08-02T13:51:56;1.00;;;0.70;;
27839;SDS011;15207;42.182;24.308;2022-08-02T13:54:22;2.10;;;0.60;;
27839;SDS011;15207;42.182;24.308;2022-08-02T13:56:47;3.85;;;0.90;;
27839;SDS011;15207;42.182;24.308;2022-08-02T13:59:13;1.80;;;0.90;;
27839;SDS011;15207;42.182;24.308;2022-08-02T14:01:40;1.45;;;0.70;;
27839;SDS011;15207;42.182;24.308;2022-08-02T14:04:07;1.00;;;0.80;;
27839;SDS011;15207;42.182;24.308;2022-08-02T14:06:34;1.07;;;0.73;;
27839;SDS011;15207;42.182;24.308;2022-08-02T14:08:59;2.30;;;0.90;;
27839;SDS011;15207;42.182;24.308;2022-08-02T14:11:25;1.00;;;0.70;;
27839;SDS011;15207;42.182;24.308;2022-08-02T14:13:51;0.70;;;0.60;;
27839;SDS011;15207;42.182;24.308;2022-08-02T14:16:16;2.45;;;0.50;;
27839;SDS011;15207;42.182;24.308;2022-08-02T14:18:42;1.40;;;0.80;;
27839;SDS011;15207;42.182;24.308;2022-08-02T14:21:07;0.85;;;0.60;;
27839;SDS011;15207;42.182;24.308;2022-08-02T14:23:33;0.90;;;0.70;;
27839;SDS011;15207;42.182;24.308;2022-08-02T14:25:58;1.30;;;0.90;;
27839;SDS011;15207;42.182;24.308;2022-08-02T14:28:24;0.83;;;0.80;;
27839;SDS011;15207;42.182;24.308;2022-08-02T14:30:49;4.50;;;0.70;;
27839;SDS011;15207;42.182;24.308;2022-08-02T14:33:15;1.10;;;0.70;;
27839;SDS011;15207;42.182;24.308;2022-08-02T14:35:43;2.25;;;0.80;;
27839;SDS011;15207;42.182;24.308;2022-08-02T14:38:08;0.80;;;0.70;;
27839;SDS011;15207;42.182;24.308;2022-08-02T14:40:34;1.90;;;0.80;;
27839;SDS011;15207;42.182;24.308;2022-08-02T14:43:00;1.90;;;0.80;;
27839;SDS011;15207;42.182;24.308;2022-08-02T14:45:26;1.80;;;0.90;;
27839;SDS011;15207;42.182;24.308;2022-08-02T14:47:54;0.75;;;0.75;;
27839;SDS011;15207;42.182;24.308;2022-08-02T14:50:20;4.10;;;0.70;;
27839;SDS011;15207;42.182;24.308;2022-08-02T14:52:46;2.28;;;1.02;;
27839;SDS011;15207;42.182;24.308;2022-08-02T14:55:13;3.60;;;1.05;;
27839;SDS011;15207;42.182;24.308;2022-08-02T14:57:39;4.55;;;0.60;;
27839;SDS011;15207;42.182;24.308;2022-08-02T15:00:05;0.75;;;0.65;;
27839;SDS011;15207;42.182;24.308;2022-08-02T15:02:31;0.80;;;0.80;;
27839;SDS011;15207;42.182;24.308;2022-08-02T15:04:57;4.73;;;0.90;;
27839;SDS011;15207;42.182;24.308;2022-08-02T15:07:22;2.72;;;0.80;;
27839;SDS011;15207;42.182;24.308;2022-08-02T15:09:48;3.20;;;0.70;;
27839;SDS011;15207;42.182;24.308;2022-08-02T15:12:14;3.20;;;0.80;;
27839;SDS011;15207;42.182;24.308;2022-08-02T15:14:40;2.55;;;0.80;;
27839;SDS011;15207;42.182;24.308;2022-08-02T15:17:06;1.40;;;0.80;;
27839;SDS011;15207;42.182;24.308;2022-08-02T15:19:33;0.70;;;0.63;;
27839;SDS011;15207;42.182;24.308;2022-08-02T15:21:58;1.00;;;0.70;;
27839;SDS011;15207;42.182;24.308;2022-08-02T15:24:25;1.75;;;0.70;;
27839;SDS011;15207;42.182;24.308;2022-08-02T15:26:51;1.20;;;0.80;;
27839;SDS011;15207;42.182;24.308;2022-08-02T15:29:18;0.90;;;0.63;;
27839;SDS011;15207;42.182;24.308;2022-08-02T15:31:44;2.85;;;0.80;;
27839;SDS011;15207;42.182;24.308;2022-08-02T15:34:10;5.00;;;1.10;;
27839;SDS011;15207;42.182;24.308;2022-08-02T15:36:36;1.10;;;0.60;;
27839;SDS011;15207;42.182;24.308;2022-08-02T15:39:03;1.45;;;0.85;;
27839;SDS011;15207;42.182;24.308;2022-08-02T15:43:54;1.20;;;0.80;;
27839;SDS011;15207;42.182;24.308;2022-08-02T15:46:19;0.60;;;0.60;;
27839;SDS011;15207;42.182;24.308;2022-08-02T15:48:45;0.65;;;0.50;;
27839;SDS011;15207;42.182;24.308;2022-08-02T15:51:10;1.40;;;0.70;;
27839;SDS011;15207;42.182;24.308;2022-08-02T15:53:36;1.40;;;0.80;;
27839;SDS011;15207;42.182;24.308;2022-08-02T15:56:01;1.20;;;0.70;;
27839;SDS011;15207;42.182;24.308;2022-08-02T15:58:27;3.67;;;0.80;;
27839;SDS011;15207;42.182;24.308;2022-08-02T16:00:53;1.10;;;0.60;;
27839;SDS011;15207;42.182;24.308;2022-08-02T16:03:19;1.20;;;1.00;;
27839;SDS011;15207;42.182;24.308;2022-08-02T16:05:44;3.15;;;0.80;;
27839;SDS011;15207;42.182;24.308;2022-08-02T16:08:10;1.20;;;0.70;;
27839;SDS011;15207;42.182;24.308;2022-08-02T16:10:36;2.20;;;1.25;;
27839;SDS011;15207;42.182;24.308;2022-08-02T16:13:02;2.50;;;1.30;;
27839;SDS011;15207;42.182;24.308;2022-08-02T16:15:46;4.40;;;1.20;;
27839;SDS011;15207;42.182;24.308;2022-08-02T16:18:11;3.77;;;1.07;;
27839;SDS011;15207;42.182;24.308;2022-08-02T16:20:37;2.70;;;0.97;;
27839;SDS011;15207;42.182;24.308;2022-08-02T16:23:03;6.65;;;1.45;;
27839;SDS011;15207;42.182;24.308;2022-08-02T16:25:28;3.27;;;1.57;;
27839;SDS011;15207;42.182;24.308;2022-08-02T16:27:54;3.10;;;1.00;;
27839;SDS011;15207;42.182;24.308;2022-08-02T16:30:20;9.85;;;1.20;;
27839;SDS011;15207;42.182;24.308;2022-08-02T16:32:46;7.10;;;1.40;;
27839;SDS011;15207;42.182;24.308;2022-08-02T16:35:11;2.30;;;1.30;;
27839;SDS011;15207;42.182;24.308;2022-08-02T16:37:37;2.60;;;1.20;;